sensor_id;sensor_type;location;lat;lon;timestamp;P1;durP1;ratioP1;P2;durP2;ratioP2
16282;SDS011;8249;48.708;9.030;2023-05-31T00:01:29;201.37;;;192.13;;
16282;SDS011;8249;48.708;9.030;2023-05-31T00:03:56;192.80;;;183.87;;
16282;SDS011;8249;48.708;9.030;2023-05-31T00:06:23;226.43;;;215.93;;
16282;SDS011;8249;48.708;9.030;2023-05-31T00:08:52;235.57;;;224.50;;
16282;SDS011;8249;48.708;9.030;2023-05-31T00:11:18;143.70;;;137.33;;
16282;SDS011;8249;48.708;9.030;2023-05-31T00:13:45;200.03;;;190.73;;
16282;SDS011;8249;48.708;9.030;2023-05-31T00:16:12;157.77;;;150.70;;
16282;SDS011;8249;48.708;9.030;2023-05-31T00:18:39;186.30;;;177.90;;
16282;SDS011;8249;48.708;9.030;2023-05-31T00:21:06;177.37;;;169.30;;
16282;SDS011;8249;48.708;9.030;2023-05-31T00:23:33;149.90;;;143.10;;
16282;SDS011;8249;48.708;9.030;2023-05-31T00:26:01;121.63;;;116.23;;
16282;SDS011;8249;48.708;9.030;2023-05-31T00:28:28;115.70;;;110.57;;
16282;SDS011;8249;48.708;9.030;2023-05-31T00:30:55;181.60;;;173.50;;
16282;SDS011;8249;48.708;9.030;2023-05-31T00:33:22;171.10;;;163.23;;
16282;SDS011;8249;48.708;9.030;2023-05-31T00:35:49;124.20;;;118.77;;
16282;SDS011;8249;48.708;9.030;2023-05-31T00:38:16;215.47;;;205.57;;
16282;SDS011;8249;48.708;9.030;2023-05-31T00:40:44;278.03;;;264.73;;
16282;SDS011;8249;48.708;9.030;2023-05-31T00:43:14;246.10;;;234.70;;
16282;SDS011;8249;48.708;9.030;2023-05-31T00:45:41;253.17;;;241.00;;
16282;SDS011;8249;48.708;9.030;2023-05-31T00:48:08;148.23;;;141.43;;
16282;SDS011;8249;48.708;9.030;2023-05-31T00:50:35;154.00;;;147.00;;
16282;SDS011;8249;48.708;9.030;2023-05-31T00:53:02;169.27;;;161.47;;
16282;SDS011;8249;48.708;9.030;2023-05-31T00:55:30;174.87;;;166.80;;
16282;SDS011;8249;48.708;9.030;2023-05-31T00:57:58;234.20;;;223.23;;
16282;SDS011;8249;48.708;9.030;2023-05-31T01:00:27;306.77;;;292.37;;
16282;SDS011;8249;48.708;9.030;2023-05-31T01:02:56;247.47;;;236.37;;
16282;SDS011;8249;48.708;9.030;2023-05-31T01:05:26;250.80;;;239.27;;
16282;SDS011;8249;48.708;9.030;2023-05-31T01:07:53;236.60;;;225.67;;
16282;SDS011;8249;48.708;9.030;2023-05-31T01:10:20;206.03;;;196.87;;
16282;SDS011;8249;48.708;9.030;2023-05-31T01:12:50;218.63;;;208.87;;
16282;SDS011;8249;48.708;9.030;2023-05-31T01:15:27;216.03;;;206.43;;
16282;SDS011;8249;48.708;9.030;2023-05-31T01:18:02;188.43;;;179.97;;
16282;SDS011;8249;48.708;9.030;2023-05-31T01:20:37;217.07;;;207.30;;
16282;SDS011;8249;48.708;9.030;2023-05-31T01:23:11;282.30;;;269.33;;
16282;SDS011;8249;48.708;9.030;2023-05-31T01:25:58;349.90;;;333.80;;
16282;SDS011;8249;48.708;9.030;2023-05-31T01:28:40;334.00;;;318.83;;
16282;SDS011;8249;48.708;9.030;2023-05-31T01:31:09;329.50;;;314.90;;
16282;SDS011;8249;48.708;9.030;2023-05-31T01:33:41;264.50;;;252.90;;
16282;SDS011;8249;48.708;9.030;2023-05-31T01:36:10;279.20;;;266.87;;
16282;SDS011;8249;48.708;9.030;2023-05-31T01:38:41;234.60;;;224.23;;
16282;SDS011;8249;48.708;9.030;2023-05-31T01:41:08;231.90;;;222.10;;
16282;SDS011;8249;48.708;9.030;2023-05-31T01:43:40;206.30;;;197.57;;
16282;SDS011;8249;48.708;9.030;2023-05-31T01:46:09;156.03;;;149.40;;
16282;SDS011;8249;48.708;9.030;2023-05-31T01:48:40;118.50;;;113.17;;
16282;SDS011;8249;48.708;9.030;2023-05-31T01:51:08;135.53;;;129.67;;
16282;SDS011;8249;48.708;9.030;2023-05-31T01:53:38;125.00;;;119.57;;
16282;SDS011;8249;48.708;9.030;2023-05-31T01:56:05;121.83;;;116.50;;
16282;SDS011;8249;48.708;9.030;2023-05-31T01:58:35;164.73;;;157.67;;
16282;SDS011;8249;48.708;9.030;2023-05-31T02:01:08;229.73;;;219.87;;
16282;SDS011;8249;48.708;9.030;2023-05-31T02:03:37;199.27;;;190.80;;
16282;SDS011;8249;48.708;9.030;2023-05-31T02:06:05;198.17;;;189.83;;
16282;SDS011;8249;48.708;9.030;2023-05-31T02:08:34;144.00;;;137.70;;
16282;SDS011;8249;48.708;9.030;2023-05-31T02:11:01;114.33;;;109.23;;
16282;SDS011;8249;48.708;9.030;2023-05-31T02:13:29;107.90;;;103.17;;
16282;SDS011;8249;48.708;9.030;2023-05-31T02:15:57;103.97;;;99.13;;
16282;SDS011;8249;48.708;9.030;2023-05-31T02:18:25;141.13;;;135.13;;
16282;SDS011;8249;48.708;9.030;2023-05-31T02:20:53;154.67;;;147.90;;
16282;SDS011;8249;48.708;9.030;2023-05-31T02:23:20;144.10;;;137.87;;
16282;SDS011;8249;48.708;9.030;2023-05-31T02:25:48;117.10;;;111.90;;
16282;SDS011;8249;48.708;9.030;2023-05-31T02:28:16;118.40;;;113.30;;
16282;SDS011;8249;48.708;9.030;2023-05-31T02:30:52;112.80;;;107.80;;
16282;SDS011;8249;48.708;9.030;2023-05-31T02:33:22;133.17;;;127.53;;
16282;SDS011;8249;48.708;9.030;2023-05-31T02:35:51;130.47;;;124.77;;
16282;SDS011;8249;48.708;9.030;2023-05-31T02:38:18;132.63;;;126.83;;
16282;SDS011;8249;48.708;9.030;2023-05-31T02:40:45;137.60;;;131.43;;
16282;SDS011;8249;48.708;9.030;2023-05-31T02:43:12;125.87;;;120.00;;
16282;SDS011;8249;48.708;9.030;2023-05-31T02:45:39;151.00;;;144.40;;
16282;SDS011;8249;48.708;9.030;2023-05-31T02:48:08;141.83;;;135.53;;
16282;SDS011;8249;48.708;9.030;2023-05-31T02:50:35;134.70;;;128.87;;
16282;SDS011;8249;48.708;9.030;2023-05-31T02:53:07;137.43;;;131.37;;
16282;SDS011;8249;48.708;9.030;2023-05-31T02:55:42;121.43;;;116.10;;
16282;SDS011;8249;48.708;9.030;2023-05-31T02:58:18;136.80;;;130.87;;
16282;SDS011;8249;48.708;9.030;2023-05-31T03:01:08;132.17;;;126.57;;
16282;SDS011;8249;48.708;9.030;2023-05-31T03:03:42;125.77;;;120.27;;
16282;SDS011;8249;48.708;9.030;2023-05-31T03:06:32;128.50;;;122.90;;
16282;SDS011;8249;48.708;9.030;2023-05-31T03:09:01;111.47;;;106.60;;
16282;SDS011;8249;48.708;9.030;2023-05-31T03:11:29;135.90;;;129.93;;
16282;SDS011;8249;48.708;9.030;2023-05-31T03:13:56;125.60;;;120.13;;
16282;SDS011;8249;48.708;9.030;2023-05-31T03:16:31;113.07;;;108.13;;
16282;SDS011;8249;48.708;9.030;2023-05-31T03:18:59;118.47;;;113.33;;
16282;SDS011;8249;48.708;9.030;2023-05-31T03:21:26;131.50;;;125.77;;
16282;SDS011;8249;48.708;9.030;2023-05-31T03:23:53;94.27;;;90.13;;
16282;SDS011;8249;48.708;9.030;2023-05-31T03:26:22;118.70;;;113.40;;
16282;SDS011;8249;48.708;9.030;2023-05-31T03:28:49;121.40;;;116.07;;
16282;SDS011;8249;48.708;9.030;2023-05-31T03:31:16;123.80;;;118.43;;
16282;SDS011;8249;48.708;9.030;2023-05-31T03:33:44;113.97;;;108.97;;
16282;SDS011;8249;48.708;9.030;2023-05-31T03:36:11;122.73;;;117.40;;
16282;SDS011;8249;48.708;9.030;2023-05-31T03:38:38;130.03;;;124.33;;
16282;SDS011;8249;48.708;9.030;2023-05-31T03:41:05;145.07;;;138.73;;
16282;SDS011;8249;48.708;9.030;2023-05-31T03:43:43;101.90;;;97.40;;
16282;SDS011;8249;48.708;9.030;2023-05-31T03:46:11;105.20;;;100.33;;
16282;SDS011;8249;48.708;9.030;2023-05-31T03:48:37;118.50;;;113.30;;
16282;SDS011;8249;48.708;9.030;2023-05-31T03:51:04;146.27;;;139.80;;
16282;SDS011;8249;48.708;9.030;2023-05-31T03:53:34;118.80;;;113.53;;
16282;SDS011;8249;48.708;9.030;2023-05-31T03:56:01;119.43;;;114.27;;
16282;SDS011;8249;48.708;9.030;2023-05-31T03:58:28;187.50;;;179.43;;
16282;SDS011;8249;48.708;9.030;2023-05-31T04:00:56;188.87;;;180.73;;
16282;SDS011;8249;48.708;9.030;2023-05-31T04:03:26;189.67;;;181.30;;
16282;SDS011;8249;48.708;9.030;2023-05-31T04:05:53;211.67;;;202.37;;
16282;SDS011;8249;48.708;9.030;2023-05-31T04:08:22;292.87;;;279.87;;
16282;SDS011;8249;48.708;9.030;2023-05-31T04:10:50;296.53;;;283.43;;
16282;SDS011;8249;48.708;9.030;2023-05-31T04:13:17;295.17;;;282.17;;
16282;SDS011;8249;48.708;9.030;2023-05-31T04:15:44;282.50;;;270.00;;
16282;SDS011;8249;48.708;9.030;2023-05-31T04:18:12;289.13;;;276.53;;
16282;SDS011;8249;48.708;9.030;2023-05-31T04:20:39;299.40;;;286.30;;
16282;SDS011;8249;48.708;9.030;2023-05-31T04:23:06;313.63;;;299.93;;
16282;SDS011;8249;48.708;9.030;2023-05-31T04:25:33;298.27;;;285.17;;
16282;SDS011;8249;48.708;9.030;2023-05-31T04:28:00;335.87;;;320.87;;
16282;SDS011;8249;48.708;9.030;2023-05-31T04:30:30;312.10;;;298.20;;
16282;SDS011;8249;48.708;9.030;2023-05-31T04:32:58;248.97;;;238.10;;
16282;SDS011;8249;48.708;9.030;2023-05-31T04:35:27;220.43;;;210.67;;
16282;SDS011;8249;48.708;9.030;2023-05-31T04:37:56;216.33;;;207.13;;
16282;SDS011;8249;48.708;9.030;2023-05-31T04:40:24;256.10;;;244.60;;
16282;SDS011;8249;48.708;9.030;2023-05-31T04:42:51;263.73;;;251.93;;
16282;SDS011;8249;48.708;9.030;2023-05-31T04:45:24;194.80;;;186.67;;
16282;SDS011;8249;48.708;9.030;2023-05-31T04:47:52;215.47;;;206.40;;
16282;SDS011;8249;48.708;9.030;2023-05-31T04:50:20;212.17;;;203.03;;
16282;SDS011;8249;48.708;9.030;2023-05-31T04:52:48;215.87;;;206.97;;
16282;SDS011;8249;48.708;9.030;2023-05-31T04:55:16;195.27;;;186.83;;
16282;SDS011;8249;48.708;9.030;2023-05-31T04:57:43;253.70;;;242.93;;
16282;SDS011;8249;48.708;9.030;2023-05-31T05:00:12;212.70;;;203.93;;
16282;SDS011;8249;48.708;9.030;2023-05-31T05:03:03;241.83;;;231.50;;
16282;SDS011;8249;48.708;9.030;2023-05-31T05:05:31;235.53;;;225.67;;
16282;SDS011;8249;48.708;9.030;2023-05-31T05:07:59;236.63;;;226.40;;
16282;SDS011;8249;48.708;9.030;2023-05-31T05:10:27;192.43;;;183.70;;
16282;SDS011;8249;48.708;9.030;2023-05-31T05:12:54;273.87;;;262.07;;
16282;SDS011;8249;48.708;9.030;2023-05-31T05:15:21;183.67;;;175.67;;
16282;SDS011;8249;48.708;9.030;2023-05-31T05:17:49;164.67;;;157.30;;
16282;SDS011;8249;48.708;9.030;2023-05-31T05:20:16;175.60;;;168.17;;
16282;SDS011;8249;48.708;9.030;2023-05-31T05:22:49;204.93;;;195.93;;
16282;SDS011;8249;48.708;9.030;2023-05-31T05:25:18;177.97;;;170.13;;
16282;SDS011;8249;48.708;9.030;2023-05-31T05:27:46;181.87;;;173.77;;
16282;SDS011;8249;48.708;9.030;2023-05-31T05:30:13;203.17;;;194.33;;
16282;SDS011;8249;48.708;9.030;2023-05-31T05:32:41;285.60;;;272.97;;
16282;SDS011;8249;48.708;9.030;2023-05-31T05:35:08;328.63;;;314.53;;
16282;SDS011;8249;48.708;9.030;2023-05-31T05:37:35;231.07;;;220.87;;
16282;SDS011;8249;48.708;9.030;2023-05-31T05:40:03;252.10;;;241.40;;
16282;SDS011;8249;48.708;9.030;2023-05-31T05:42:34;187.87;;;179.60;;
16282;SDS011;8249;48.708;9.030;2023-05-31T05:45:03;285.40;;;272.40;;
16282;SDS011;8249;48.708;9.030;2023-05-31T05:47:32;299.20;;;285.83;;
16282;SDS011;8249;48.708;9.030;2023-05-31T05:49:59;259.43;;;247.57;;
16282;SDS011;8249;48.708;9.030;2023-05-31T05:52:26;306.53;;;292.87;;
16282;SDS011;8249;48.708;9.030;2023-05-31T05:54:53;178.93;;;170.67;;
16282;SDS011;8249;48.708;9.030;2023-05-31T05:57:21;225.80;;;214.57;;
16282;SDS011;8249;48.708;9.030;2023-05-31T05:59:52;183.23;;;174.37;;
16282;SDS011;8249;48.708;9.030;2023-05-31T06:02:20;118.90;;;113.50;;
16282;SDS011;8249;48.708;9.030;2023-05-31T06:04:49;114.30;;;109.10;;
16282;SDS011;8249;48.708;9.030;2023-05-31T06:07:16;103.90;;;99.30;;
16282;SDS011;8249;48.708;9.030;2023-05-31T06:09:48;132.87;;;126.07;;
16282;SDS011;8249;48.708;9.030;2023-05-31T06:12:18;160.90;;;153.13;;
16282;SDS011;8249;48.708;9.030;2023-05-31T06:14:46;168.63;;;161.23;;
16282;SDS011;8249;48.708;9.030;2023-05-31T06:17:15;151.47;;;144.43;;
16282;SDS011;8249;48.708;9.030;2023-05-31T06:19:42;133.67;;;127.63;;
16282;SDS011;8249;48.708;9.030;2023-05-31T06:22:10;197.17;;;188.53;;
16282;SDS011;8249;48.708;9.030;2023-05-31T06:24:36;167.07;;;159.47;;
16282;SDS011;8249;48.708;9.030;2023-05-31T06:27:04;133.40;;;127.30;;
16282;SDS011;8249;48.708;9.030;2023-05-31T06:29:36;187.67;;;179.00;;
16282;SDS011;8249;48.708;9.030;2023-05-31T06:32:19;155.70;;;148.63;;
16282;SDS011;8249;48.708;9.030;2023-05-31T06:34:47;203.57;;;194.20;;
16282;SDS011;8249;48.708;9.030;2023-05-31T06:37:14;181.03;;;172.23;;
16282;SDS011;8249;48.708;9.030;2023-05-31T06:39:41;136.17;;;130.00;;
16282;SDS011;8249;48.708;9.030;2023-05-31T06:42:08;203.33;;;193.83;;
16282;SDS011;8249;48.708;9.030;2023-05-31T06:44:45;187.43;;;178.63;;
16282;SDS011;8249;48.708;9.030;2023-05-31T06:47:27;192.27;;;182.97;;
16282;SDS011;8249;48.708;9.030;2023-05-31T06:50:13;143.33;;;136.87;;
16282;SDS011;8249;48.708;9.030;2023-05-31T06:53:05;154.07;;;146.87;;
16282;SDS011;8249;48.708;9.030;2023-05-31T06:55:49;163.60;;;156.00;;
16282;SDS011;8249;48.708;9.030;2023-05-31T06:58:19;170.70;;;162.53;;
16282;SDS011;8249;48.708;9.030;2023-05-31T07:00:49;134.30;;;128.33;;
16282;SDS011;8249;48.708;9.030;2023-05-31T07:03:18;195.47;;;186.43;;
16282;SDS011;8249;48.708;9.030;2023-05-31T07:05:45;221.33;;;210.37;;
16282;SDS011;8249;48.708;9.030;2023-05-31T07:08:13;186.70;;;178.03;;
16282;SDS011;8249;48.708;9.030;2023-05-31T07:11:02;183.77;;;175.13;;
16282;SDS011;8249;48.708;9.030;2023-05-31T07:13:29;272.03;;;258.70;;
16282;SDS011;8249;48.708;9.030;2023-05-31T07:15:56;271.23;;;259.07;;
16282;SDS011;8249;48.708;9.030;2023-05-31T07:18:25;181.27;;;173.07;;
16282;SDS011;8249;48.708;9.030;2023-05-31T07:20:55;207.60;;;198.33;;
16282;SDS011;8249;48.708;9.030;2023-05-31T07:23:22;160.63;;;153.20;;
16282;SDS011;8249;48.708;9.030;2023-05-31T07:25:49;238.30;;;227.40;;
16282;SDS011;8249;48.708;9.030;2023-05-31T07:28:16;312.77;;;298.60;;
16282;SDS011;8249;48.708;9.030;2023-05-31T07:30:43;335.70;;;320.13;;
16282;SDS011;8249;48.708;9.030;2023-05-31T07:33:13;144.83;;;138.13;;
16282;SDS011;8249;48.708;9.030;2023-05-31T07:35:42;199.57;;;190.20;;
16282;SDS011;8249;48.708;9.030;2023-05-31T07:38:09;305.70;;;291.80;;
16282;SDS011;8249;48.708;9.030;2023-05-31T07:40:36;189.70;;;180.37;;
16282;SDS011;8249;48.708;9.030;2023-05-31T07:43:03;151.77;;;144.77;;
16282;SDS011;8249;48.708;9.030;2023-05-31T07:45:30;147.00;;;140.47;;
16282;SDS011;8249;48.708;9.030;2023-05-31T07:47:57;203.60;;;194.00;;
16282;SDS011;8249;48.708;9.030;2023-05-31T07:50:24;165.93;;;158.33;;
16282;SDS011;8249;48.708;9.030;2023-05-31T07:52:53;202.27;;;192.83;;
16282;SDS011;8249;48.708;9.030;2023-05-31T07:55:19;185.87;;;177.73;;
16282;SDS011;8249;48.708;9.030;2023-05-31T07:57:46;217.27;;;207.27;;
16282;SDS011;8249;48.708;9.030;2023-05-31T08:00:13;172.30;;;164.70;;
16282;SDS011;8249;48.708;9.030;2023-05-31T08:02:40;226.27;;;216.17;;
16282;SDS011;8249;48.708;9.030;2023-05-31T08:05:08;263.57;;;251.63;;
16282;SDS011;8249;48.708;9.030;2023-05-31T08:07:35;261.83;;;250.43;;
16282;SDS011;8249;48.708;9.030;2023-05-31T08:10:04;246.90;;;236.10;;
16282;SDS011;8249;48.708;9.030;2023-05-31T08:12:31;89.80;;;85.87;;
16282;SDS011;8249;48.708;9.030;2023-05-31T08:14:59;80.80;;;77.27;;
16282;SDS011;8249;48.708;9.030;2023-05-31T08:17:27;78.17;;;74.63;;
16282;SDS011;8249;48.708;9.030;2023-05-31T08:19:54;98.00;;;93.57;;
16282;SDS011;8249;48.708;9.030;2023-05-31T08:22:22;281.17;;;268.87;;
16282;SDS011;8249;48.708;9.030;2023-05-31T08:24:49;95.97;;;91.68;;
16282;SDS011;8249;48.708;9.030;2023-05-31T08:27:17;93.13;;;88.78;;
16282;SDS011;8249;48.708;9.030;2023-05-31T08:29:44;99.33;;;94.73;;
16282;SDS011;8249;48.708;9.030;2023-05-31T08:32:11;101.53;;;96.90;;
16282;SDS011;8249;48.708;9.030;2023-05-31T08:34:38;106.00;;;101.32;;
16282;SDS011;8249;48.708;9.030;2023-05-31T08:37:05;104.68;;;99.95;;
16282;SDS011;8249;48.708;9.030;2023-05-31T08:39:32;96.63;;;92.43;;
16282;SDS011;8249;48.708;9.030;2023-05-31T08:41:59;110.63;;;105.87;;
16282;SDS011;8249;48.708;9.030;2023-05-31T08:44:29;112.78;;;107.63;;
16282;SDS011;8249;48.708;9.030;2023-05-31T08:46:57;98.93;;;94.55;;
16282;SDS011;8249;48.708;9.030;2023-05-31T08:49:24;96.60;;;92.37;;
16282;SDS011;8249;48.708;9.030;2023-05-31T08:51:53;124.53;;;119.00;;
16282;SDS011;8249;48.708;9.030;2023-05-31T08:54:21;102.68;;;97.97;;
16282;SDS011;8249;48.708;9.030;2023-05-31T08:56:50;113.82;;;108.65;;
16282;SDS011;8249;48.708;9.030;2023-05-31T08:59:18;114.95;;;109.68;;
16282;SDS011;8249;48.708;9.030;2023-05-31T09:01:47;92.90;;;88.88;;
16282;SDS011;8249;48.708;9.030;2023-05-31T09:04:16;96.13;;;91.80;;
16282;SDS011;8249;48.708;9.030;2023-05-31T09:06:43;117.07;;;111.82;;
16282;SDS011;8249;48.708;9.030;2023-05-31T09:09:10;98.10;;;93.65;;
16282;SDS011;8249;48.708;9.030;2023-05-31T09:11:37;93.47;;;89.38;;
16282;SDS011;8249;48.708;9.030;2023-05-31T09:14:05;122.53;;;117.15;;
16282;SDS011;8249;48.708;9.030;2023-05-31T09:16:34;101.63;;;97.10;;
16282;SDS011;8249;48.708;9.030;2023-05-31T09:19:03;146.45;;;139.85;;
16282;SDS011;8249;48.708;9.030;2023-05-31T09:21:37;119.78;;;114.43;;
16282;SDS011;8249;48.708;9.030;2023-05-31T09:24:05;119.53;;;114.28;;
16282;SDS011;8249;48.708;9.030;2023-05-31T09:26:32;131.75;;;125.72;;
16282;SDS011;8249;48.708;9.030;2023-05-31T09:29:00;147.82;;;141.30;;
16282;SDS011;8249;48.708;9.030;2023-05-31T09:31:27;127.38;;;121.88;;
16282;SDS011;8249;48.708;9.030;2023-05-31T09:33:54;128.10;;;122.50;;
16282;SDS011;8249;48.708;9.030;2023-05-31T09:36:26;149.63;;;143.05;;
16282;SDS011;8249;48.708;9.030;2023-05-31T09:39:00;136.18;;;130.05;;
16282;SDS011;8249;48.708;9.030;2023-05-31T09:41:29;121.38;;;116.15;;
16282;SDS011;8249;48.708;9.030;2023-05-31T09:43:58;131.18;;;125.45;;
16282;SDS011;8249;48.708;9.030;2023-05-31T09:46:25;121.20;;;115.95;;
16282;SDS011;8249;48.708;9.030;2023-05-31T09:48:58;146.35;;;139.90;;
16282;SDS011;8249;48.708;9.030;2023-05-31T09:51:27;131.00;;;125.05;;
16282;SDS011;8249;48.708;9.030;2023-05-31T09:53:57;94.30;;;90.18;;
16282;SDS011;8249;48.708;9.030;2023-05-31T09:56:24;107.15;;;102.45;;
16282;SDS011;8249;48.708;9.030;2023-05-31T09:58:55;113.70;;;108.70;;
16282;SDS011;8249;48.708;9.030;2023-05-31T10:01:23;113.00;;;108.03;;
16282;SDS011;8249;48.708;9.030;2023-05-31T10:03:51;88.93;;;84.97;;
16282;SDS011;8249;48.708;9.030;2023-05-31T10:06:19;78.60;;;75.20;;
16282;SDS011;8249;48.708;9.030;2023-05-31T10:08:48;86.80;;;83.00;;
16282;SDS011;8249;48.708;9.030;2023-05-31T10:11:17;100.65;;;96.18;;
16282;SDS011;8249;48.708;9.030;2023-05-31T10:13:46;120.10;;;114.55;;
16282;SDS011;8249;48.708;9.030;2023-05-31T10:16:15;79.65;;;76.10;;
16282;SDS011;8249;48.708;9.030;2023-05-31T10:18:45;109.45;;;104.45;;
16282;SDS011;8249;48.708;9.030;2023-05-31T10:21:16;106.25;;;101.40;;
16282;SDS011;8249;48.708;9.030;2023-05-31T10:23:57;122.15;;;116.63;;
16282;SDS011;8249;48.708;9.030;2023-05-31T10:26:31;132.43;;;126.47;;
16282;SDS011;8249;48.708;9.030;2023-05-31T10:29:05;136.85;;;130.85;;
16282;SDS011;8249;48.708;9.030;2023-05-31T10:31:39;139.80;;;133.60;;
16282;SDS011;8249;48.708;9.030;2023-05-31T10:34:12;140.75;;;134.57;;
16282;SDS011;8249;48.708;9.030;2023-05-31T10:36:42;147.45;;;140.95;;
16282;SDS011;8249;48.708;9.030;2023-05-31T10:39:13;152.77;;;145.73;;
16282;SDS011;8249;48.708;9.030;2023-05-31T10:41:46;147.43;;;140.85;;
16282;SDS011;8249;48.708;9.030;2023-05-31T10:44:22;149.38;;;142.73;;
16282;SDS011;8249;48.708;9.030;2023-05-31T10:46:58;145.68;;;139.32;;
16282;SDS011;8249;48.708;9.030;2023-05-31T10:49:29;132.73;;;127.03;;
16282;SDS011;8249;48.708;9.030;2023-05-31T10:52:04;117.93;;;112.88;;
16282;SDS011;8249;48.708;9.030;2023-05-31T10:54:34;119.47;;;114.35;;
16282;SDS011;8249;48.708;9.030;2023-05-31T10:57:02;135.07;;;129.15;;
16282;SDS011;8249;48.708;9.030;2023-05-31T10:59:38;119.28;;;114.10;;
16282;SDS011;8249;48.708;9.030;2023-05-31T11:02:08;80.57;;;77.18;;
16282;SDS011;8249;48.708;9.030;2023-05-31T11:04:36;80.70;;;77.25;;
16282;SDS011;8249;48.708;9.030;2023-05-31T11:07:14;87.22;;;83.45;;
16282;SDS011;8249;48.708;9.030;2023-05-31T11:09:56;64.55;;;61.75;;
16282;SDS011;8249;48.708;9.030;2023-05-31T11:12:31;94.05;;;90.00;;
16282;SDS011;8249;48.708;9.030;2023-05-31T11:14:59;67.35;;;64.35;;
16282;SDS011;8249;48.708;9.030;2023-05-31T11:17:28;74.63;;;71.38;;
16282;SDS011;8249;48.708;9.030;2023-05-31T11:19:56;71.47;;;68.32;;
16282;SDS011;8249;48.708;9.030;2023-05-31T11:22:27;88.15;;;84.20;;
16282;SDS011;8249;48.708;9.030;2023-05-31T11:24:55;73.22;;;69.97;;
16282;SDS011;8249;48.708;9.030;2023-05-31T11:27:34;108.40;;;103.72;;
16282;SDS011;8249;48.708;9.030;2023-05-31T11:30:02;132.65;;;126.93;;
16282;SDS011;8249;48.708;9.030;2023-05-31T11:32:54;109.50;;;104.72;;
16282;SDS011;8249;48.708;9.030;2023-05-31T11:35:25;92.00;;;87.95;;
16282;SDS011;8249;48.708;9.030;2023-05-31T11:38:04;91.75;;;87.55;;
16282;SDS011;8249;48.708;9.030;2023-05-31T11:40:34;122.57;;;117.28;;
16282;SDS011;8249;48.708;9.030;2023-05-31T11:43:06;105.90;;;101.25;;
16282;SDS011;8249;48.708;9.030;2023-05-31T11:45:39;118.47;;;113.25;;
16282;SDS011;8249;48.708;9.030;2023-05-31T11:48:14;141.02;;;134.88;;
16282;SDS011;8249;48.708;9.030;2023-05-31T11:50:50;142.23;;;136.00;;
16282;SDS011;8249;48.708;9.030;2023-05-31T11:53:17;148.00;;;141.60;;
16282;SDS011;8249;48.708;9.030;2023-05-31T11:55:45;142.43;;;136.07;;
16282;SDS011;8249;48.708;9.030;2023-05-31T11:58:13;149.82;;;143.30;;
16282;SDS011;8249;48.708;9.030;2023-05-31T12:00:44;148.57;;;142.20;;
16282;SDS011;8249;48.708;9.030;2023-05-31T12:03:13;133.70;;;127.93;;
16282;SDS011;8249;48.708;9.030;2023-05-31T12:05:42;130.40;;;124.85;;
16282;SDS011;8249;48.708;9.030;2023-05-31T12:08:14;125.53;;;120.07;;
16282;SDS011;8249;48.708;9.030;2023-05-31T12:10:43;118.97;;;113.72;;
16282;SDS011;8249;48.708;9.030;2023-05-31T12:13:12;114.63;;;109.45;;
16282;SDS011;8249;48.708;9.030;2023-05-31T12:15:44;120.28;;;115.05;;
16282;SDS011;8249;48.708;9.030;2023-05-31T12:18:17;111.43;;;106.43;;
16282;SDS011;8249;48.708;9.030;2023-05-31T12:20:44;113.90;;;108.88;;
16282;SDS011;8249;48.708;9.030;2023-05-31T12:23:11;113.88;;;108.95;;
16282;SDS011;8249;48.708;9.030;2023-05-31T12:25:46;125.13;;;119.72;;
16282;SDS011;8249;48.708;9.030;2023-05-31T12:28:16;125.85;;;120.43;;
16282;SDS011;8249;48.708;9.030;2023-05-31T12:30:44;127.10;;;121.57;;
16282;SDS011;8249;48.708;9.030;2023-05-31T12:33:12;117.75;;;112.70;;
16282;SDS011;8249;48.708;9.030;2023-05-31T12:35:39;109.80;;;105.13;;
16282;SDS011;8249;48.708;9.030;2023-05-31T12:38:07;114.10;;;109.25;;
16282;SDS011;8249;48.708;9.030;2023-05-31T12:40:36;120.88;;;115.60;;
16282;SDS011;8249;48.708;9.030;2023-05-31T12:43:03;129.90;;;124.30;;
16282;SDS011;8249;48.708;9.030;2023-05-31T12:45:33;132.10;;;126.38;;
16282;SDS011;8249;48.708;9.030;2023-05-31T12:48:06;128.75;;;123.03;;
16282;SDS011;8249;48.708;9.030;2023-05-31T12:50:34;143.15;;;136.90;;
16282;SDS011;8249;48.708;9.030;2023-05-31T12:53:01;124.03;;;118.60;;
16282;SDS011;8249;48.708;9.030;2023-05-31T12:55:31;110.55;;;105.85;;
16282;SDS011;8249;48.708;9.030;2023-05-31T12:57:58;163.60;;;156.18;;
16282;SDS011;8249;48.708;9.030;2023-05-31T13:00:25;166.73;;;159.38;;
16282;SDS011;8249;48.708;9.030;2023-05-31T13:02:54;147.13;;;140.70;;
16282;SDS011;8249;48.708;9.030;2023-05-31T13:05:21;112.25;;;107.30;;
16282;SDS011;8249;48.708;9.030;2023-05-31T13:07:51;109.10;;;104.40;;
16282;SDS011;8249;48.708;9.030;2023-05-31T13:10:19;110.10;;;105.30;;
16282;SDS011;8249;48.708;9.030;2023-05-31T13:12:46;105.90;;;101.28;;
16282;SDS011;8249;48.708;9.030;2023-05-31T13:15:12;108.18;;;103.50;;
16282;SDS011;8249;48.708;9.030;2023-05-31T13:17:39;104.25;;;99.80;;
16282;SDS011;8249;48.708;9.030;2023-05-31T13:20:09;122.28;;;116.93;;
16282;SDS011;8249;48.708;9.030;2023-05-31T13:22:37;113.60;;;108.60;;
16282;SDS011;8249;48.708;9.030;2023-05-31T13:25:04;142.52;;;136.25;;
16282;SDS011;8249;48.708;9.030;2023-05-31T13:27:32;147.50;;;141.02;;
16282;SDS011;8249;48.708;9.030;2023-05-31T13:29:58;144.75;;;138.38;;
16282;SDS011;8249;48.708;9.030;2023-05-31T13:32:26;116.80;;;111.70;;
16282;SDS011;8249;48.708;9.030;2023-05-31T13:34:53;131.75;;;125.85;;
16282;SDS011;8249;48.708;9.030;2023-05-31T13:37:21;141.00;;;134.90;;
16282;SDS011;8249;48.708;9.030;2023-05-31T13:39:48;137.35;;;131.45;;
16282;SDS011;8249;48.708;9.030;2023-05-31T13:42:15;138.65;;;132.52;;
16282;SDS011;8249;48.708;9.030;2023-05-31T13:44:42;121.80;;;116.50;;
16282;SDS011;8249;48.708;9.030;2023-05-31T13:47:09;128.77;;;123.00;;
16282;SDS011;8249;48.708;9.030;2023-05-31T13:49:36;133.52;;;127.65;;
16282;SDS011;8249;48.708;9.030;2023-05-31T13:52:04;122.53;;;117.22;;
16282;SDS011;8249;48.708;9.030;2023-05-31T13:54:34;101.80;;;97.40;;
16282;SDS011;8249;48.708;9.030;2023-05-31T13:57:02;116.45;;;111.40;;
16282;SDS011;8249;48.708;9.030;2023-05-31T13:59:29;134.32;;;128.50;;
16282;SDS011;8249;48.708;9.030;2023-05-31T14:01:56;133.27;;;127.47;;
16282;SDS011;8249;48.708;9.030;2023-05-31T14:04:23;127.65;;;122.00;;
16282;SDS011;8249;48.708;9.030;2023-05-31T14:06:50;128.82;;;123.22;;
16282;SDS011;8249;48.708;9.030;2023-05-31T14:09:18;131.15;;;125.45;;
16282;SDS011;8249;48.708;9.030;2023-05-31T14:11:46;131.45;;;125.55;;
16282;SDS011;8249;48.708;9.030;2023-05-31T14:14:13;109.45;;;104.22;;
16282;SDS011;8249;48.708;9.030;2023-05-31T14:16:40;136.43;;;130.48;;
16282;SDS011;8249;48.708;9.030;2023-05-31T14:19:07;136.00;;;129.80;;
16282;SDS011;8249;48.708;9.030;2023-05-31T14:21:34;121.30;;;116.03;;
16282;SDS011;8249;48.708;9.030;2023-05-31T14:24:02;127.50;;;121.93;;